sensor_id;sensor_type;location;lat;lon;timestamp;P1;durP1;ratioP1;P2;durP2;ratioP2
37789;SDS011;23628;51.434;6.988;2023-03-14T00:03:35;8.13;;;2.03;;
37789;SDS011;23628;51.434;6.988;2023-03-14T00:08:47;4.97;;;1.75;;
37789;SDS011;23628;51.434;6.988;2023-03-14T00:19:09;9.00;;;1.95;;
37789;SDS011;23628;51.434;6.988;2023-03-14T00:24:21;4.43;;;1.67;;
37789;SDS011;23628;51.434;6.988;2023-03-14T00:26:56;6.57;;;1.63;;
37789;SDS011;23628;51.434;6.988;2023-03-14T00:32:22;5.80;;;1.53;;
37789;SDS011;23628;51.434;6.988;2023-03-14T00:37:34;6.00;;;1.95;;
37789;SDS011;23628;51.434;6.988;2023-03-14T00:40:10;6.55;;;1.83;;
37789;SDS011;23628;51.434;6.988;2023-03-14T00:45:21;4.97;;;1.52;;
37789;SDS011;23628;51.434;6.988;2023-03-14T00:50:36;7.65;;;1.95;;
37789;SDS011;23628;51.434;6.988;2023-03-14T00:55:47;5.30;;;1.30;;
37789;SDS011;23628;51.434;6.988;2023-03-14T00:58:23;5.43;;;1.60;;
37789;SDS011;23628;51.434;6.988;2023-03-14T01:03:36;3.20;;;0.90;;
37789;SDS011;23628;51.434;6.988;2023-03-14T01:08:49;2.53;;;0.83;;
37789;SDS011;23628;51.434;6.988;2023-03-14T01:13:59;2.53;;;0.80;;
37789;SDS011;23628;51.434;6.988;2023-03-14T01:16:35;1.30;;;0.70;;
37789;SDS011;23628;51.434;6.988;2023-03-14T01:19:11;4.70;;;1.23;;
37789;SDS011;23628;51.434;6.988;2023-03-14T01:29:43;2.30;;;0.65;;
37789;SDS011;23628;51.434;6.988;2023-03-14T01:34:52;2.45;;;1.20;;
37789;SDS011;23628;51.434;6.988;2023-03-14T01:40:01;5.05;;;1.25;;
37789;SDS011;23628;51.434;6.988;2023-03-14T01:51:02;5.70;;;0.93;;
37789;SDS011;23628;51.434;6.988;2023-03-14T01:56:15;5.33;;;1.57;;
37789;SDS011;23628;51.434;6.988;2023-03-14T02:01:27;3.90;;;1.50;;
37789;SDS011;23628;51.434;6.988;2023-03-14T02:09:12;7.28;;;1.20;;
37789;SDS011;23628;51.434;6.988;2023-03-14T02:11:48;4.63;;;1.23;;
37789;SDS011;23628;51.434;6.988;2023-03-14T02:17:00;5.40;;;1.20;;
37789;SDS011;23628;51.434;6.988;2023-03-14T02:22:11;4.22;;;1.33;;
37789;SDS011;23628;51.434;6.988;2023-03-14T02:24:57;7.63;;;1.52;;
37789;SDS011;23628;51.434;6.988;2023-03-14T17:23:02;8.27;;;1.57;;
37789;SDS011;23628;51.434;6.988;2023-03-14T17:25:38;8.98;;;1.52;;
37789;SDS011;23628;51.434;6.988;2023-03-14T17:28:16;4.32;;;1.50;;
37789;SDS011;23628;51.434;6.988;2023-03-14T17:33:42;4.88;;;1.73;;
37789;SDS011;23628;51.434;6.988;2023-03-14T18:12:34;4.45;;;1.55;;
37789;SDS011;23628;51.434;6.988;2023-03-14T18:40:17;7.85;;;2.20;;
37789;SDS011;23628;51.434;6.988;2023-03-14T19:44:38;7.22;;;2.15;;
37789;SDS011;23628;51.434;6.988;2023-03-14T20:01:59;12.10;;;2.47;;
37789;SDS011;23628;51.434;6.988;2023-03-14T20:10:53;4.65;;;2.20;;
37789;SDS011;23628;51.434;6.988;2023-03-14T20:25:18;6.15;;;1.83;;
37789;SDS011;23628;51.434;6.988;2023-03-14T20:47:48;8.70;;;2.33;;
37789;SDS011;23628;51.434;6.988;2023-03-14T20:50:24;6.53;;;2.03;;
37789;SDS011;23628;51.434;6.988;2023-03-14T20:53:00;6.47;;;1.90;;
37789;SDS011;23628;51.434;6.988;2023-03-14T20:58:09;9.68;;;2.80;;
37789;SDS011;23628;51.434;6.988;2023-03-14T21:03:20;11.55;;;2.72;;
37789;SDS011;23628;51.434;6.988;2023-03-14T21:08:32;5.18;;;1.98;;
37789;SDS011;23628;51.434;6.988;2023-03-14T21:13:42;9.27;;;2.80;;
37789;SDS011;23628;51.434;6.988;2023-03-14T21:18:53;6.45;;;1.80;;
37789;SDS011;23628;51.434;6.988;2023-03-14T21:24:01;7.95;;;2.00;;
37789;SDS011;23628;51.434;6.988;2023-03-14T21:29:11;7.40;;;1.73;;
37789;SDS011;23628;51.434;6.988;2023-03-14T21:34:22;6.70;;;1.75;;
37789;SDS011;23628;51.434;6.988;2023-03-14T21:39:38;8.43;;;2.22;;
37789;SDS011;23628;51.434;6.988;2023-03-14T21:44:46;3.88;;;1.77;;
37789;SDS011;23628;51.434;6.988;2023-03-14T21:49:57;9.82;;;1.92;;
37789;SDS011;23628;51.434;6.988;2023-03-14T21:55:09;7.60;;;2.20;;
37789;SDS011;23628;51.434;6.988;2023-03-14T21:57:46;6.88;;;2.25;;
37789;SDS011;23628;51.434;6.988;2023-03-14T22:00:23;6.40;;;2.25;;
37789;SDS011;23628;51.434;6.988;2023-03-14T22:03:00;10.57;;;1.98;;
37789;SDS011;23628;51.434;6.988;2023-03-14T22:08:23;7.35;;;2.13;;
37789;SDS011;23628;51.434;6.988;2023-03-14T22:10:59;6.90;;;2.03;;
37789;SDS011;23628;51.434;6.988;2023-03-14T22:16:09;3.95;;;1.85;;
37789;SDS011;23628;51.434;6.988;2023-03-14T22:21:22;6.30;;;1.98;;
37789;SDS011;23628;51.434;6.988;2023-03-14T22:23:58;5.57;;;1.70;;
37789;SDS011;23628;51.434;6.988;2023-03-14T22:29:09;10.52;;;1.73;;
37789;SDS011;23628;51.434;6.988;2023-03-14T22:34:33;6.20;;;2.20;;
37789;SDS011;23628;51.434;6.988;2023-03-14T22:39:46;6.70;;;2.27;;
37789;SDS011;23628;51.434;6.988;2023-03-14T22:42:21;8.73;;;2.27;;
37789;SDS011;23628;51.434;6.988;2023-03-14T22:47:31;5.45;;;1.90;;
37789;SDS011;23628;51.434;6.988;2023-03-14T22:52:41;7.55;;;2.20;;
37789;SDS011;23628;51.434;6.988;2023-03-14T22:55:19;12.18;;;2.00;;
